createdAt,value
2018-07-19T00:02:10.501Z,99.90
2018-07-19T00:04:39.738Z,99.90
2018-07-19T00:07:08.963Z,99.90
2018-07-19T00:09:38.214Z,99.90
2018-07-19T00:12:07.718Z,99.90
2018-07-19T00:14:37.951Z,99.90
2018-07-19T00:17:07.422Z,99.90
2018-07-19T00:19:36.708Z,99.90
2018-07-19T00:22:06.025Z,99.90
2018-07-19T00:24:35.262Z,99.90
2018-07-19T00:27:04.546Z,99.90
2018-07-19T00:29:33.822Z,99.90
2018-07-19T00:32:03.047Z,99.90
2018-07-19T00:34:32.272Z,99.90
2018-07-19T00:37:01.503Z,99.90
2018-07-19T00:39:30.739Z,99.90
2018-07-19T00:42:00.059Z,99.90
2018-07-19T00:44:29.326Z,99.90
2018-07-19T00:46:58.627Z,99.90
2018-07-19T00:49:27.852Z,99.90
2018-07-19T00:51:57.144Z,99.90
2018-07-19T00:54:26.879Z,99.90
2018-07-19T00:56:56.126Z,99.90
2018-07-19T00:59:25.382Z,99.90
2018-07-19T01:01:54.616Z,99.90
2018-07-19T01:04:23.914Z,99.90
2018-07-19T01:06:53.196Z,99.90
2018-07-19T01:09:22.420Z,99.90
2018-07-19T01:11:51.680Z,99.90
2018-07-19T01:14:20.959Z,99.90
2018-07-19T01:16:50.202Z,99.90
2018-07-19T01:19:19.511Z,99.90
2018-07-19T01:21:48.784Z,99.90
2018-07-19T01:24:18.092Z,99.90
2018-07-19T01:26:47.331Z,99.90
2018-07-19T01:29:16.604Z,99.90
2018-07-19T01:31:45.848Z,99.90
2018-07-19T01:34:15.120Z,99.90
2018-07-19T01:36:44.424Z,99.90
2018-07-19T01:39:13.659Z,99.90
2018-07-19T01:42:20.707Z,99.90
2018-07-19T01:44:49.938Z,99.90
2018-07-19T06:25:57.976Z,99.90
2018-07-19T06:28:28.479Z,99.90
2018-07-19T06:30:58.061Z,99.90
2018-07-19T06:33:29.368Z,99.90
2018-07-19T06:35:59.361Z,99.90
2018-07-19T06:38:29.001Z,99.90
2018-07-19T06:41:06.146Z,99.90
2018-07-19T06:43:36.322Z,99.90
2018-07-19T06:46:06.138Z,99.90
2018-07-19T06:48:35.662Z,99.90
2018-07-19T06:51:05.356Z,99.90
2018-07-19T06:53:34.929Z,99.90
2018-07-19T06:56:04.487Z,99.90
2018-07-19T06:58:34.079Z,99.90
2018-07-19T07:01:03.710Z,99.90
2018-07-19T07:03:33.303Z,99.90
2018-07-19T07:06:02.884Z,99.90
2018-07-19T07:08:32.388Z,99.90
2018-07-19T07:11:01.916Z,99.90
2018-07-19T07:13:31.445Z,99.90
2018-07-19T07:16:01.049Z,99.90
2018-07-19T07:18:30.600Z,99.90
2018-07-19T07:21:00.825Z,99.90
2018-07-19T07:23:30.363Z,99.90
2018-07-19T07:26:00.768Z,99.90
2018-07-19T07:28:30.321Z,99.90
2018-07-19T07:31:00.450Z,99.90
2018-07-19T07:33:30.049Z,99.90
2018-07-19T07:36:00.556Z,99.90
2018-07-19T07:38:30.172Z,99.90
2018-07-19T07:41:00.053Z,99.90
2018-07-19T07:43:29.604Z,99.90
2018-07-19T07:45:59.603Z,99.90
2018-07-19T07:48:29.180Z,99.90
2018-07-19T07:50:58.764Z,99.90
2018-07-19T07:53:29.637Z,99.90
2018-07-19T07:55:59.482Z,99.90
2018-07-19T07:58:29.218Z,99.90
2018-07-19T08:00:58.793Z,99.90
2018-07-19T08:03:28.321Z,99.80
2018-07-19T08:06:04.181Z,99.90
2018-07-19T08:08:33.759Z,99.90
2018-07-19T08:11:04.116Z,99.90
2018-07-19T08:13:33.753Z,99.90
2018-07-19T08:16:03.856Z,98.80
2018-07-19T08:18:33.467Z,95.70
2018-07-19T08:21:03.309Z,94.70
2018-07-19T08:23:32.929Z,93.80
2018-07-19T08:26:03.016Z,96.40
2018-07-19T08:28:32.560Z,96.90
2018-07-19T08:31:02.678Z,96.80
2018-07-19T08:33:32.262Z,98.60
2018-07-19T08:36:02.499Z,99.60
2018-07-19T08:38:32.033Z,99.00
2018-07-19T08:41:01.573Z,97.00
2018-07-19T08:43:33.502Z,96.90
2018-07-19T08:46:03.911Z,96.50
2018-07-19T08:48:33.466Z,95.20
2018-07-19T08:51:03.634Z,95.00
2018-07-19T08:53:33.189Z,93.60
2018-07-19T08:56:03.288Z,93.60
2018-07-19T08:58:32.890Z,92.20
2018-07-19T09:01:02.913Z,91.40
2018-07-19T09:03:32.457Z,89.90
2018-07-19T09:06:02.256Z,88.50
2018-07-19T09:08:32.248Z,85.60
2018-07-19T09:11:01.864Z,84.00
2018-07-19T09:13:31.393Z,84.40
2018-07-19T09:16:00.976Z,83.60
2018-07-19T09:18:30.493Z,84.80
2018-07-19T09:21:00.065Z,83.00
2018-07-19T09:23:29.677Z,84.50
2018-07-19T09:25:59.212Z,83.60
2018-07-19T09:28:28.807Z,84.60
2018-07-19T09:30:58.427Z,85.00
2018-07-19T09:33:27.996Z,88.10
2018-07-19T09:35:57.561Z,80.00
2018-07-19T09:38:27.170Z,83.90
2018-07-19T09:40:56.680Z,80.70
2018-07-19T09:43:26.272Z,83.30
2018-07-19T09:45:55.991Z,86.10
2018-07-19T09:48:25.516Z,83.40
2018-07-19T09:50:55.069Z,80.00
2018-07-19T09:53:24.682Z,82.40
2018-07-19T09:55:54.194Z,79.20
2018-07-19T09:58:23.783Z,79.80
2018-07-19T10:00:58.510Z,77.90
2018-07-19T10:03:28.164Z,76.50
2018-07-19T10:05:57.717Z,77.20
2018-07-19T10:08:27.333Z,73.50
2018-07-19T10:10:56.872Z,69.50
2018-07-19T10:13:26.549Z,73.60
2018-07-19T10:15:56.084Z,74.60
2018-07-19T10:18:25.742Z,75.50
2018-07-19T10:20:55.390Z,75.00
2018-07-19T10:23:25.238Z,76.30
2018-07-19T10:25:54.949Z,76.30
2018-07-19T10:28:24.649Z,77.20
2018-07-19T10:30:54.168Z,76.40
2018-07-19T10:33:23.752Z,75.10
2018-07-19T10:35:53.469Z,74.90
2018-07-19T10:38:23.427Z,73.50
2018-07-19T10:40:53.064Z,72.90
2018-07-19T10:43:22.681Z,70.30
2018-07-19T10:45:52.412Z,70.50
2018-07-19T10:48:22.017Z,70.40
2018-07-19T10:50:52.540Z,71.40
2018-07-19T10:53:22.141Z,71.60
2018-07-19T10:55:51.693Z,68.70
2018-07-19T10:58:21.204Z,68.40
2018-07-19T11:00:50.805Z,70.10
2018-07-19T11:03:20.389Z,71.60
2018-07-19T11:05:49.941Z,67.20
2018-07-19T11:08:19.474Z,68.80
2018-07-19T11:10:49.032Z,71.30
2018-07-19T11:13:19.184Z,70.00
2018-07-19T11:15:48.716Z,68.10
2018-07-19T11:18:18.326Z,64.10
2018-07-19T11:20:48.873Z,67.10
2018-07-19T11:23:18.919Z,67.80
2018-07-19T11:25:48.576Z,69.30
2018-07-19T11:28:18.120Z,72.60
2018-07-19T11:30:48.008Z,73.20
2018-07-19T11:33:17.588Z,67.80
2018-07-19T11:35:47.160Z,65.60
2018-07-19T11:38:16.770Z,63.30
2018-07-19T11:40:46.381Z,59.60
2018-07-19T11:43:15.941Z,59.60
2018-07-19T11:45:45.542Z,57.20
2018-07-19T11:48:15.033Z,58.60
2018-07-19T11:50:44.688Z,59.50
2018-07-19T11:53:14.272Z,61.60
2018-07-19T11:55:43.833Z,61.70
2018-07-19T11:58:13.334Z,59.60
2018-07-19T12:00:42.907Z,56.50
2018-07-19T12:03:12.456Z,57.30
2018-07-19T12:05:41.985Z,55.90
2018-07-19T12:08:11.547Z,56.90
2018-07-19T12:10:41.076Z,58.20
2018-07-19T12:13:10.624Z,58.10
2018-07-19T12:15:40.264Z,59.00
2018-07-19T12:18:09.847Z,60.90
2018-07-19T12:20:39.505Z,66.00
2018-07-19T12:25:38.085Z,61.50
2018-07-19T12:28:07.647Z,61.90
2018-07-19T12:30:37.184Z,59.90
2018-07-19T12:33:06.778Z,62.80
2018-07-19T12:35:36.336Z,62.60
2018-07-19T12:38:05.892Z,60.00
2018-07-19T12:40:35.643Z,60.90
2018-07-19T12:43:05.248Z,63.80
2018-07-19T12:45:35.080Z,65.90
2018-07-19T12:48:04.739Z,64.70
2018-07-19T12:50:34.276Z,61.50
2018-07-19T12:53:03.860Z,61.30
2018-07-19T12:55:33.612Z,62.50
2018-07-19T12:58:03.173Z,62.00
2018-07-19T13:00:32.803Z,59.80
2018-07-19T13:03:02.385Z,56.70
2018-07-19T13:05:32.028Z,55.30
2018-07-19T13:08:01.542Z,55.30
2018-07-19T13:13:00.889Z,56.70
2018-07-19T13:15:31.822Z,58.60
2018-07-19T13:18:01.384Z,56.90
2018-07-19T13:20:31.345Z,58.40
2018-07-19T13:23:00.917Z,58.10
2018-07-19T13:25:30.948Z,57.70
2018-07-19T13:28:00.530Z,55.40
2018-07-19T13:30:30.405Z,56.00
2018-07-19T13:32:59.939Z,58.60
2018-07-19T13:35:30.817Z,58.60
2018-07-19T13:38:00.376Z,58.10
2018-07-19T13:40:30.743Z,58.90
2018-07-19T13:43:00.285Z,62.00
2018-07-19T13:47:58.993Z,64.70
2018-07-19T13:54:10.868Z,64.10
2018-07-19T14:09:10.348Z,65.90
2018-07-19T14:11:39.876Z,69.60
2018-07-19T14:14:09.528Z,68.60
2018-07-19T14:16:39.132Z,68.70
2018-07-19T14:19:08.684Z,69.90
2018-07-19T14:21:38.263Z,68.90
2018-07-19T14:24:07.905Z,69.80
2018-07-19T14:26:37.602Z,66.60
2018-07-19T14:29:07.236Z,68.80
2018-07-19T14:34:06.170Z,71.40
2018-07-19T14:39:22.266Z,72.50
2018-07-19T14:41:51.873Z,73.20
2018-07-19T14:44:21.700Z,71.30
2018-07-19T14:46:51.365Z,70.40
2018-07-19T14:49:20.948Z,71.60
2018-07-19T14:51:50.556Z,70.00
2018-07-19T14:54:20.184Z,70.70
2018-07-19T14:56:49.721Z,70.50
2018-07-19T14:59:19.281Z,70.90
2018-07-19T15:01:48.976Z,70.20
2018-07-19T15:04:18.573Z,69.30
2018-07-19T15:06:48.233Z,66.20
2018-07-19T15:09:17.913Z,64.50
2018-07-19T15:11:47.529Z,65.80
2018-07-19T15:14:17.238Z,66.90
2018-07-19T15:16:46.919Z,63.80
2018-07-19T15:19:16.594Z,66.50
2018-07-19T15:21:46.254Z,68.10
2018-07-19T15:24:15.881Z,67.80
2018-07-19T15:26:45.441Z,67.00
2018-07-19T15:29:14.996Z,65.80
2018-07-19T15:31:44.598Z,65.10
2018-07-19T15:34:14.166Z,65.30
2018-07-19T15:36:43.817Z,64.60
2018-07-19T15:39:13.536Z,66.00
2018-07-19T15:41:43.134Z,68.00
2018-07-19T15:44:12.697Z,68.50
2018-07-19T15:46:42.329Z,68.40
2018-07-19T15:49:11.901Z,67.20
2018-07-19T15:51:42.629Z,69.00
2018-07-19T15:54:12.211Z,70.50
2018-07-19T15:56:42.553Z,72.10
2018-07-19T15:59:12.069Z,71.70
2018-07-19T16:01:42.401Z,72.00
2018-07-19T16:04:12.230Z,73.50
2018-07-19T16:06:42.090Z,73.70
2018-07-19T16:09:12.614Z,74.80
2018-07-19T16:11:42.386Z,74.70
2018-07-19T16:14:11.973Z,73.70
2018-07-19T16:16:42.554Z,76.20
2018-07-19T16:19:12.081Z,76.40
2018-07-19T16:21:42.268Z,76.20
2018-07-19T16:24:11.865Z,79.10
2018-07-19T16:26:42.209Z,76.00
2018-07-19T16:29:11.785Z,76.40
2018-07-19T16:31:41.793Z,73.70
2018-07-19T16:34:11.365Z,71.30
2018-07-19T16:36:42.106Z,71.80
2018-07-19T16:39:11.891Z,71.20
2018-07-19T16:41:42.021Z,71.30
2018-07-19T16:44:11.624Z,70.70
2018-07-19T16:46:41.616Z,70.70
2018-07-19T16:49:11.483Z,69.50
2018-07-19T16:51:41.056Z,68.00
2018-07-19T16:54:10.681Z,67.10
2018-07-19T16:56:40.233Z,66.60
2018-07-19T16:59:09.793Z,67.20
2018-07-19T17:01:39.387Z,66.90
2018-07-19T17:04:09.022Z,66.30
2018-07-19T17:06:38.664Z,66.80
2018-07-19T17:09:09.813Z,67.20
2018-07-19T17:11:39.467Z,67.50
2018-07-19T17:14:09.163Z,66.80
2018-07-19T17:16:38.723Z,65.30
2018-07-19T17:19:08.350Z,64.60
2018-07-19T17:21:37.938Z,64.60
2018-07-19T17:24:07.537Z,64.90
2018-07-19T17:26:37.190Z,65.70
2018-07-19T17:29:06.747Z,67.10
2018-07-19T17:31:36.598Z,67.30
2018-07-19T17:34:06.183Z,68.90
2018-07-19T17:36:35.815Z,69.40
2018-07-19T17:39:08.394Z,69.40
2018-07-19T17:41:37.970Z,70.00
2018-07-19T17:44:07.520Z,70.90
2018-07-19T17:46:37.153Z,70.80
2018-07-19T17:49:07.333Z,71.20
2018-07-19T17:51:36.916Z,72.00
2018-07-19T17:54:06.805Z,71.30
2018-07-19T17:56:36.387Z,71.60
2018-07-19T17:59:06.068Z,71.50
2018-07-19T18:01:35.824Z,72.80
2018-07-19T18:04:05.399Z,71.50
2018-07-19T18:06:36.337Z,72.40
2018-07-19T18:09:07.962Z,72.00
2018-07-19T18:11:38.241Z,71.90
2018-07-19T18:14:08.386Z,72.10
2018-07-19T18:16:38.020Z,72.00
2018-07-19T18:19:07.900Z,71.20
2018-07-19T18:21:37.538Z,71.50
2018-07-19T18:24:07.169Z,72.20
2018-07-19T18:26:36.754Z,71.60
2018-07-19T18:29:06.577Z,72.10
2018-07-19T18:31:36.208Z,72.50
2018-07-19T18:34:05.943Z,71.80
2018-07-19T18:36:35.471Z,71.70
2018-07-19T18:39:08.120Z,71.60
2018-07-19T18:41:37.793Z,71.40
2018-07-19T18:44:07.599Z,70.60
2018-07-19T18:46:37.411Z,70.50
2018-07-19T18:49:06.943Z,68.90
2018-07-19T18:51:36.468Z,70.00
2018-07-19T18:54:06.077Z,70.20
2018-07-19T18:56:35.677Z,69.90
2018-07-19T18:59:05.254Z,70.90
2018-07-19T19:01:34.881Z,71.30
2018-07-19T19:04:04.785Z,71.00
2018-07-19T19:06:34.398Z,71.90
2018-07-19T19:09:06.060Z,73.10
2018-07-19T19:11:35.753Z,73.30
2018-07-19T19:14:05.642Z,74.10
2018-07-19T19:16:35.346Z,73.80
2018-07-19T19:19:04.985Z,74.30
2018-07-19T19:21:35.448Z,74.50
2018-07-19T19:24:05.130Z,74.60
2018-07-19T19:26:34.702Z,73.90
2018-07-19T19:29:04.275Z,75.20
2018-07-19T19:31:33.920Z,75.50
2018-07-19T19:34:03.463Z,75.30
2018-07-19T19:36:32.986Z,74.20
2018-07-19T19:39:02.563Z,72.50
2018-07-19T19:41:32.177Z,72.60
2018-07-19T19:44:01.847Z,72.80
2018-07-19T19:46:31.656Z,73.00
2018-07-19T19:49:01.259Z,71.70
2018-07-19T19:51:30.993Z,72.90
2018-07-19T19:54:00.576Z,73.50
2018-07-19T19:56:30.093Z,73.00
2018-07-19T19:58:59.682Z,73.50
2018-07-19T20:01:29.941Z,74.00
2018-07-19T20:03:59.498Z,74.30
2018-07-19T20:06:29.168Z,76.60
2018-07-19T20:08:58.699Z,73.70
2018-07-19T20:11:28.443Z,75.80
2018-07-19T20:13:58.118Z,76.40
2018-07-19T20:16:27.703Z,76.20
2018-07-19T20:18:57.670Z,78.00
2018-07-19T20:21:27.241Z,78.00
2018-07-19T20:23:56.808Z,78.30
2018-07-19T20:26:26.565Z,78.20
2018-07-19T20:28:56.086Z,78.10
2018-07-19T20:31:26.554Z,78.50
2018-07-19T20:33:57.960Z,78.10
2018-07-19T20:36:27.744Z,78.50
2018-07-19T20:38:58.106Z,79.60
2018-07-19T20:41:27.722Z,79.70
2018-07-19T20:43:57.776Z,80.20
2018-07-19T20:46:27.297Z,80.80
2018-07-19T20:48:57.400Z,82.00
2018-07-19T20:51:26.978Z,80.20
2018-07-19T20:53:56.727Z,80.20
2018-07-19T20:56:26.292Z,80.20
2018-07-19T20:58:55.813Z,80.80
2018-07-19T21:01:25.920Z,80.80
2018-07-19T21:03:55.476Z,80.50
2018-07-19T21:06:25.014Z,82.40
2018-07-19T21:08:54.599Z,81.30
2018-07-19T21:11:24.117Z,81.50
2018-07-19T21:13:53.800Z,82.60
2018-07-19T21:16:23.420Z,82.80
2018-07-19T21:18:52.925Z,82.50
2018-07-19T21:21:22.459Z,83.70
2018-07-19T21:23:52.077Z,84.80
2018-07-19T21:26:21.663Z,84.80
2018-07-19T21:28:51.190Z,85.00
2018-07-19T21:31:20.793Z,85.70
2018-07-19T21:33:51.431Z,85.80
2018-07-19T21:36:21.036Z,85.80
2018-07-19T21:38:50.565Z,86.60
2018-07-19T21:41:20.122Z,87.50
2018-07-19T21:43:49.734Z,88.00
2018-07-19T21:46:19.261Z,87.50
2018-07-19T21:48:48.897Z,88.60
2018-07-19T21:51:18.472Z,88.50
2018-07-19T21:53:47.977Z,88.20
2018-07-19T21:56:17.529Z,88.70
2018-07-19T21:58:47.041Z,89.60
2018-07-19T22:01:16.649Z,89.70
2018-07-19T22:03:46.233Z,90.10
2018-07-19T22:06:15.799Z,90.20
2018-07-19T22:08:45.330Z,90.20
2018-07-19T22:11:14.920Z,90.50
2018-07-19T22:13:44.442Z,90.70
2018-07-19T22:16:14.043Z,90.90
2018-07-19T22:18:43.584Z,91.30
2018-07-19T22:21:13.130Z,91.60
2018-07-19T22:23:42.654Z,92.20
2018-07-19T22:26:12.215Z,92.20
2018-07-19T22:28:41.829Z,93.10
2018-07-19T22:31:11.369Z,93.60
2018-07-19T22:33:40.894Z,94.40
2018-07-19T22:36:10.434Z,95.10
2018-07-19T22:38:39.920Z,95.60
2018-07-19T22:41:09.461Z,96.60
2018-07-19T22:43:39.036Z,96.90
2018-07-19T22:46:09.125Z,98.30
2018-07-19T22:48:38.701Z,98.90
2018-07-19T22:51:08.976Z,99.90
2018-07-19T22:53:38.493Z,99.90
2018-07-19T22:56:08.873Z,99.90
2018-07-19T22:58:38.420Z,99.90
2018-07-19T23:01:09.589Z,99.90
2018-07-19T23:03:39.121Z,99.90
2018-07-19T23:06:09.600Z,99.90
2018-07-19T23:08:39.136Z,99.90
2018-07-19T23:11:09.509Z,99.90
2018-07-19T23:13:38.996Z,99.90
2018-07-19T23:16:09.289Z,99.90
2018-07-19T23:18:38.857Z,99.90
2018-07-19T23:21:09.121Z,99.90
2018-07-19T23:23:38.704Z,99.90
2018-07-19T23:26:08.620Z,99.90
2018-07-19T23:28:38.330Z,99.90
2018-07-19T23:31:08.396Z,99.90
2018-07-19T23:33:37.994Z,99.90
2018-07-19T23:36:15.891Z,99.90
2018-07-19T23:38:50.422Z,99.90
2018-07-19T23:41:27.016Z,99.90
2018-07-19T23:44:01.866Z,99.90
2018-07-19T23:46:35.772Z,99.90
2018-07-19T23:49:06.697Z,99.90
2018-07-19T23:51:38.414Z,99.90
2018-07-19T23:54:08.701Z,99.90
2018-07-19T23:56:38.250Z,99.90
2018-07-19T23:59:08.227Z,99.90
